Time;durP1;ratioP1;P1;durP2;ratioP2;P2;SDS_P1;SDS_P2;PMS_P1;PMS_P2;Temp;Humidity;BMP_temperature;BMP_pressure;BME280_temperature;BME280_humidity;BME280_pressure;Samples;Min_cycle;Max_cycle;Signal;HPM_P1;HPM_P2
2022/04/26 15:17:26;;;;;;;6.83;4.85;;;;;;;11.93;60.69;99148.41;1785810;80;23174;-38
2022/04/26 15:19:52;;;;;;;6.35;5.00;;;;;;;11.88;61.06;99150.00;1761485;81;20998;-38
2022/04/26 15:22:20;;;;;;;8.80;5.20;;;;;;;11.87;62.08;99145.19;1761574;81;20982;-35
2022/04/26 15:24:47;;;;;;;11.83;5.42;;;;;;;11.96;61.50;99149.55;1761628;81;21637;-36
2022/04/26 15:27:15;;;;;;;7.75;5.10;;;;;;;11.97;61.36;99148.14;1761921;81;21010;-37
2022/04/26 15:29:41;;;;;;;7.33;5.45;;;;;;;12.00;61.46;99144.45;1761540;81;20967;-37
2022/04/26 15:32:08;;;;;;;6.50;4.58;;;;;;;12.01;61.36;99146.16;1761697;81;21058;-38
2022/04/26 15:34:34;;;;;;;8.58;5.42;;;;;;;12.03;61.38;99147.73;1760574;81;21030;-38
2022/04/26 15:37:01;;;;;;;9.38;4.75;;;;;;;12.06;61.78;99153.27;1761989;81;20974;-36
2022/04/26 15:39:27;;;;;;;5.97;5.30;;;;;;;12.08;61.40;99154.05;1738550;81;21011;-38
2022/04/26 15:41:53;;;;;;;6.45;4.83;;;;;;;12.10;60.86;99149.03;1721167;83;20991;-36
2022/04/26 15:44:19;;;;;;;10.32;5.85;;;;;;;12.11;61.04;99151.19;1721181;83;21049;-37
2022/04/26 15:46:47;;;;;;;10.35;6.83;;;;;;;12.07;60.69;99148.39;1721165;83;20988;-36
2022/04/26 15:49:13;;;;;;;9.33;5.60;;;;;;;12.04;60.72;99145.94;1721215;82;21553;-37
2022/04/26 15:51:44;;;;;;;7.03;5.47;;;;;;;12.02;60.96;99142.56;1720638;83;21574;-39
2022/04/26 15:54:10;;;;;;;10.50;5.00;;;;;;;11.98;60.52;99145.02;1720550;82;21059;-37
2022/04/26 15:56:36;;;;;;;11.30;4.97;;;;;;;12.00;61.29;99141.81;1720991;82;21004;-37
2022/04/26 15:59:02;;;;;;;8.48;5.10;;;;;;;11.97;61.34;99144.19;1721211;82;21567;-37
2022/04/26 16:01:28;;;;;;;7.03;4.92;;;;;;;11.97;61.20;99142.86;1719759;83;21030;-38
2022/04/26 16:03:55;;;;;;;9.80;5.40;;;;;;;11.98;61.43;99141.06;1720038;82;21730;-37
2022/04/26 16:06:20;;;;;;;10.82;4.85;;;;;;;11.98;61.26;99147.66;1719618;82;21587;-37
2022/04/26 16:08:46;;;;;;;7.92;5.42;;;;;;;11.98;61.21;99148.49;1721103;83;21007;-37
2022/04/26 16:22:09;;;;;;;16.45;9.60;;;;;;;11.92;61.08;99136.20;1707839;84;21039;-35
2022/04/26 16:24:38;;;;;;;17.95;9.20;;;;;;;11.90;61.55;99133.17;1708200;83;21016;-38
2022/04/26 16:27:03;;;;;;;;;;;;;;;11.87;61.28;99139.91;1710368;84;21529;-36
2022/04/26 16:29:28;;;;;;;8.13;6.15;;;;;;;11.82;60.42;99139.35;1707926;83;20181;-37
2022/04/26 16:31:54;;;;;;;12.33;5.83;;;;;;;11.84;60.69;99138.81;1707964;83;21020;-35
2022/04/26 16:34:20;;;;;;;11.38;6.25;;;;;;;11.82;60.58;99136.72;1707852;84;21019;-35
2022/04/26 16:36:46;;;;;;;8.65;5.30;;;;;;;11.80;60.93;99135.97;1707839;83;21012;-35
2022/04/26 16:39:12;;;;;;;10.72;5.75;;;;;;;11.80;61.08;99138.61;1706659;83;21627;-37
2022/04/26 16:41:38;;;;;;;14.95;5.80;;;;;;;11.79;61.22;99137.38;1706965;83;21571;-37
2022/04/26 16:44:04;;;;;;;10.23;5.95;;;;;;;11.77;60.91;99145.86;1706462;83;21596;-36
2022/04/26 16:46:32;;;;;;;10.72;5.60;;;;;;;11.72;60.57;99144.84;1707652;84;21004;-38
2022/04/26 16:48:58;;;;;;;12.00;6.05;;;;;;;11.71;61.09;99144.45;1707485;83;21039;-37
2022/04/26 16:51:24;;;;;;;8.75;6.10;;;;;;;11.72;61.21;99147.48;1707509;84;21019;-39
2022/04/26 16:53:50;;;;;;;10.15;5.65;;;;;;;11.72;60.87;99151.42;1708011;83;20976;-37
2022/04/26 16:56:16;;;;;;;9.38;6.35;;;;;;;11.69;60.55;99151.61;1707743;83;21564;-36
2022/04/26 16:58:42;;;;;;;10.45;7.12;;;;;;;11.71;60.74;99153.67;1706882;84;21035;-36
2022/04/26 17:01:10;;;;;;;8.83;5.83;;;;;;;11.71;60.62;99153.67;1706690;83;21086;-37
2022/04/26 17:03:35;;;;;;;10.38;6.50;;;;;;;11.76;61.00;99149.45;1707398;83;21068;-39
2022/04/26 17:06:01;;;;;;;7.95;5.85;;;;;;;11.77;61.65;99156.39;1707863;84;21011;-36
2022/04/26 17:08:30;;;;;;;7.30;5.97;;;;;;;11.77;61.68;99159.90;1707634;84;21008;-37
2022/04/26 17:11:41;;;;;;;14.98;6.15;;;;;;;11.75;61.71;99159.15;1707374;83;21043;-37
2022/04/26 17:13:23;;;;;;;10.00;5.75;;;;;;;11.77;61.76;99160.34;1740188;82;20987;-37
2022/04/26 17:15:48;;;;;;;10.55;6.35;;;;;;;11.74;61.55;99156.61;1753301;82;21509;-37
2022/04/26 17:18:14;;;;;;;7.95;6.25;;;;;;;11.74;61.64;99166.66;1753220;81;21188;-36
2022/04/26 17:20:40;;;;;;;11.43;6.08;;;;;;;11.70;61.71;99158.58;1753333;82;21007;-37
2022/04/26 17:23:06;;;;;;;16.42;6.37;;;;;;;11.66;62.30;99164.95;1753431;82;21484;-40
2022/04/26 17:25:36;;;;;;;7.72;6.17;;;;;;;11.63;62.10;99162.54;1753062;82;21006;-37
2022/04/26 17:28:08;;;;;;;17.10;7.67;;;;;;;11.58;62.37;99165.92;1752586;82;21074;-38
2022/04/26 17:30:34;;;;;;;18.52;7.97;;;;;;;11.52;62.38;99164.03;1753232;82;20979;-37
2022/04/26 17:33:01;;;;;;;9.70;6.40;;;;;;;11.45;62.53;99171.09;1751357;81;20979;-38
2022/04/26 17:35:27;;;;;;;9.85;6.72;;;;;;;11.40;62.64;99175.30;1743267;81;21094;-37
2022/04/26 17:37:53;;;;;;;9.48;6.80;;;;;;;11.37;63.08;99180.78;1752963;81;21031;-36
2022/04/26 17:40:20;;;;;;;10.82;6.15;;;;;;;11.33;63.12;99183.19;1739951;82;21019;-38
2022/04/26 17:42:46;;;;;;;;;;;;;;;11.30;63.65;99189.98;1720555;82;21014;-38
2022/04/26 17:45:12;;;;;;;8.25;6.10;;;;;;;11.24;63.79;99190.33;1751883;81;20423;-37
2022/04/26 17:47:38;;;;;;;10.58;6.28;;;;;;;11.25;63.32;99194.67;1744143;81;21090;-37
2022/04/26 17:50:06;;;;;;;9.83;6.85;;;;;;;11.19;63.39;99199.83;1751956;82;21666;-37
2022/04/26 17:56:28;;;;;;;16.12;6.08;;;;;;;11.15;63.55;99199.61;1753038;82;21038;-37
2022/04/26 17:57:46;;;;;;;9.35;7.05;;;;;;;11.07;63.79;99207.13;1752212;82;21686;-36
2022/04/26 18:00:13;;;;;;;12.65;6.30;;;;;;;11.02;63.92;99212.64;1752130;81;21089;-42
2022/04/26 18:02:40;;;;;;;9.08;5.85;;;;;;;10.98;64.03;99216.40;1753561;82;21054;-36
2022/04/26 18:05:08;;;;;;;10.18;6.58;;;;;;;10.94;63.87;99214.89;1753479;82;20979;-36
2022/04/26 18:07:34;;;;;;;;;;;;;;;10.91;63.96;99221.64;1755887;82;21523;-36
2022/04/26 18:10:00;;;;;;;12.93;6.37;;;;;;;10.87;64.41;99225.39;1753227;82;20106;-36
2022/04/26 18:12:27;;;;;;;13.72;7.83;;;;;;;10.86;64.31;99228.50;1753291;82;21050;-37
2022/04/26 18:14:54;;;;;;;9.58;7.60;;;;;;;10.85;64.50;99225.95;1753302;82;20998;-38
2022/04/26 18:17:24;;;;;;;10.82;7.03;;;;;;;10.81;64.59;99234.95;1750016;82;21023;-38
2022/04/26 18:19:50;;;;;;;10.63;7.42;;;;;;;10.80;64.80;99239.83;1747969;82;21072;-39
2022/04/26 18:22:17;;;;;;;14.90;7.78;;;;;;;10.76;64.73;99238.67;1748176;82;21035;-36
2022/04/26 18:24:43;;;;;;;12.93;8.53;;;;;;;10.75;64.60;99247.52;1748043;82;21030;-36
2022/04/26 18:27:09;;;;;;;13.45;8.18;;;;;;;10.73;64.88;99253.34;1748020;82;20992;-37
2022/04/26 18:29:35;;;;;;;14.75;7.83;;;;;;;10.70;65.13;99256.13;1747903;82;21552;-36
2022/04/26 18:32:01;;;;;;;14.75;8.15;;;;;;;10.68;65.12;99258.00;1748283;82;21445;-36
2022/04/26 18:34:27;;;;;;;15.70;8.55;;;;;;;10.67;65.63;99259.41;1747939;82;21473;-37
2022/04/26 18:36:53;;;;;;;18.27;8.65;;;;;;;10.63;66.01;99257.41;1747994;82;20952;-36
2022/04/26 18:39:21;;;;;;;18.07;10.68;;;;;;;10.60;66.45;99256.73;1747949;82;20991;-37
2022/04/26 18:41:48;;;;;;;22.93;11.95;;;;;;;10.56;66.24;99266.09;1748069;82;20968;-36
2022/04/26 18:44:17;;;;;;;20.52;13.00;;;;;;;10.55;67.46;99266.17;1747990;82;20991;-37
2022/04/26 18:46:44;;;;;;;18.60;10.63;;;;;;;10.53;67.94;99269.36;1747912;82;20987;-38
2022/04/26 18:49:11;;;;;;;18.30;10.28;;;;;;;10.48;67.00;99270.11;1748295;82;21058;-36
2022/04/26 18:51:42;;;;;;;20.52;10.60;;;;;;;10.47;67.25;99274.50;1747974;82;21047;-37
2022/04/26 18:54:07;;;;;;;17.85;9.70;;;;;;;10.45;67.65;99279.00;1746091;82;21123;-37
2022/04/26 18:56:33;;;;;;;19.42;10.20;;;;;;;10.45;67.40;99278.16;1746759;82;21035;-39
2022/04/26 18:58:58;;;;;;;20.77;10.45;;;;;;;10.46;67.59;99282.02;1746534;82;21034;-37
2022/04/26 19:01:26;;;;;;;17.48;10.50;;;;;;;10.44;67.49;99289.59;1746586;82;21082;-37
2022/04/26 19:03:52;;;;;;;27.37;11.78;;;;;;;10.41;67.89;99285.84;1746780;82;21070;-36
2022/04/26 19:06:18;;;;;;;23.15;12.20;;;;;;;10.35;67.63;99289.18;1748028;82;20975;-36
2022/04/26 19:08:43;;;;;;;25.90;13.53;;;;;;;10.33;67.97;99288.86;1747899;82;21006;-36
2022/04/26 19:13:56;;;;;;;25.85;13.83;;;;;;;10.34;68.16;99299.77;1747924;82;21003;-38
2022/04/26 19:16:22;;;;;;;27.40;14.93;;;;;;;10.31;68.58;99300.77;1747683;82;20987;-35
2022/04/26 19:18:48;;;;;;;38.70;15.15;;;;;;;10.33;68.71;99299.37;1748047;82;20996;-37
2022/04/26 19:21:14;;;;;;;45.38;16.95;;;;;;;10.31;68.57;99306.02;1747888;82;21116;-38
2022/04/26 19:23:40;;;;;;;26.60;15.30;;;;;;;10.30;68.68;99309.56;1747905;82;20995;-36
2022/04/26 19:26:06;;;;;;;30.62;15.98;;;;;;;10.33;68.48;99309.45;1747886;82;21031;-36
2022/04/26 19:28:33;;;;;;;29.77;16.10;;;;;;;10.35;68.53;99311.52;1747985;82;20968;-37
2022/04/26 19:30:59;;;;;;;30.10;16.40;;;;;;;10.35;68.61;99311.52;1748150;82;21586;-37
2022/04/26 19:33:25;;;;;;;30.08;16.60;;;;;;;10.36;68.79;99307.94;1747968;82;20952;-37
2022/04/26 19:35:51;;;;;;;36.38;17.67;;;;;;;10.38;68.33;99318.38;1747945;82;20982;-38
2022/04/26 19:38:21;;;;;;;35.83;16.87;;;;;;;10.35;68.68;99317.22;1747920;82;21645;-36
2022/04/26 19:40:48;;;;;;;32.55;16.67;;;;;;;10.34;68.78;99319.48;1747685;82;20994;-36
2022/04/26 19:43:16;;;;;;;31.25;16.77;;;;;;;10.32;68.45;99319.56;1748065;82;21026;-37
2022/04/26 19:45:43;;;;;;;;;;;;;;;10.29;69.68;99315.74;1750596;82;21003;-39
2022/04/26 19:48:10;;;;;;;33.58;16.77;;;;;;;10.24;69.89;99316.92;1748068;82;20110;-37
2022/04/26 19:53:20;;;;;;;33.73;17.77;;;;;;;10.15;70.34;99315.63;1748064;82;20975;-36
2022/04/26 19:55:46;;;;;;;32.23;16.95;;;;;;;10.10;70.50;99329.50;1747944;82;20984;-37
2022/04/26 19:58:12;;;;;;;31.97;17.35;;;;;;;10.07;70.21;99326.55;1748071;82;21018;-40
2022/04/26 20:00:38;;;;;;;33.33;18.98;;;;;;;10.05;70.32;99331.05;1747920;82;21027;-38
2022/04/26 20:03:05;;;;;;;34.95;17.75;;;;;;;10.04;70.80;99332.43;1748001;82;20995;-37
2022/04/26 20:05:30;;;;;;;37.73;18.40;;;;;;;10.01;71.14;99332.61;1748036;82;21010;-34
2022/04/26 20:07:56;;;;;;;35.73;19.20;;;;;;;9.99;71.51;99332.22;1748143;82;21500;-36
2022/04/26 20:10:23;;;;;;;35.63;17.87;;;;;;;9.99;71.04;99336.63;1748175;82;21469;-37
2022/04/26 20:12:49;;;;;;;38.48;19.15;;;;;;;10.01;70.78;99332.61;1748359;82;21446;-36
2022/04/26 20:15:15;;;;;;;35.43;18.25;;;;;;;9.98;71.01;99334.45;1748082;82;20988;-36
2022/04/26 20:17:42;;;;;;;37.78;19.10;;;;;;;10.02;71.19;99330.35;1748351;82;21004;-37
2022/04/26 20:20:10;;;;;;;34.60;18.45;;;;;;;10.02;71.01;99330.35;1748122;82;20995;-37
2022/04/26 20:22:38;;;;;;;34.60;18.05;;;;;;;10.01;71.75;99329.98;1748016;82;20983;-37
2022/04/26 20:25:06;;;;;;;33.42;17.87;;;;;;;10.04;71.19;99329.80;1746675;82;20976;-37
2022/04/26 20:30:18;;;;;;;31.30;18.40;;;;;;;9.98;71.28;99335.76;1748092;82;20646;-36
2022/04/26 20:32:45;;;;;;;36.65;17.80;;;;;;;10.00;70.87;99335.69;1747887;82;20944;-36
2022/04/26 20:35:11;;;;;;;30.23;16.70;;;;;;;9.98;71.11;99333.13;1748002;82;20960;-36
2022/04/26 20:37:37;;;;;;;32.70;17.30;;;;;;;9.97;71.16;99336.70;1748036;82;21035;-36
2022/04/26 20:40:07;;;;;;;38.05;16.65;;;;;;;9.97;71.21;99339.33;1748058;82;20980;-37
2022/04/26 20:42:32;;;;;;;35.83;16.55;;;;;;;9.95;71.44;99335.94;1747958;82;20983;-37
2022/04/26 20:45:00;;;;;;;32.30;17.50;;;;;;;9.94;71.54;99331.59;1747955;82;20968;-36
2022/04/26 20:47:26;;;;;;;33.13;17.67;;;;;;;9.94;71.81;99337.33;1748230;82;20964;-36
2022/04/26 20:49:53;;;;;;;32.83;16.45;;;;;;;9.94;71.71;99335.54;1748049;82;21033;-36
2022/04/26 20:52:19;;;;;;;;;;;;;;;9.93;71.53;99333.86;1750792;82;20983;-36
2022/04/26 20:54:47;;;;;;;29.48;16.23;;;;;;;9.87;72.11;99343.83;1748028;82;20178;-35
2022/04/26 20:57:12;;;;;;;;;;;;;;;9.87;71.77;99338.09;1750619;82;20964;-36
2022/04/26 20:59:38;;;;;;;36.88;16.87;;;;;;;9.84;72.42;99343.53;1748008;82;20107;-36
2022/04/26 21:02:04;;;;;;;31.60;17.92;;;;;;;9.86;71.87;99342.98;1748008;82;20991;-37
2022/04/26 21:04:30;;;;;;;37.38;18.00;;;;;;;9.85;71.91;99349.16;1747996;82;21030;-36
2022/04/26 21:06:55;;;;;;;32.40;17.90;;;;;;;9.85;72.79;99344.38;1748016;82;20987;-38
2022/04/26 21:09:22;;;;;;;35.23;18.60;;;;;;;9.86;72.25;99342.11;1748008;82;20979;-35
2022/04/26 21:11:51;;;;;;;32.13;18.23;;;;;;;9.86;72.08;99346.92;1748266;82;21027;-36
2022/04/26 21:14:17;;;;;;;30.85;17.20;;;;;;;9.85;72.08;99345.21;1747983;82;20999;-37
2022/04/26 21:16:43;;;;;;;31.37;17.98;;;;;;;9.84;71.96;99344.84;1748062;82;20995;-35
2022/04/26 21:19:09;;;;;;;31.50;16.93;;;;;;;9.87;71.81;99351.70;1755986;82;21007;-38
2022/04/26 21:21:35;;;;;;;29.57;17.37;;;;;;;9.85;71.72;99347.84;1755989;82;21030;-36
2022/04/26 21:24:01;;;;;;;27.32;16.62;;;;;;;9.83;71.83;99353.64;1756085;82;21003;-44
2022/04/26 21:26:27;;;;;;;32.28;18.15;;;;;;;9.80;72.07;99352.47;1756121;82;21034;-36
2022/04/26 21:28:53;;;;;;;32.10;18.12;;;;;;;9.73;72.43;99345.83;1756055;82;20967;-41
2022/04/26 21:31:19;;;;;;;29.57;18.12;;;;;;;9.70;72.46;99351.27;1756168;82;21499;-36
2022/04/26 21:33:45;;;;;;;30.50;17.98;;;;;;;9.66;72.27;99351.01;1756035;82;21480;-36
2022/04/26 21:36:12;;;;;;;30.82;17.92;;;;;;;9.61;72.66;99354.72;1755980;82;20995;-37
2022/04/26 21:38:38;;;;;;;30.95;19.65;;;;;;;9.53;72.98;99358.21;1756235;82;20994;-36
2022/04/26 21:41:06;;;;;;;35.20;19.17;;;;;;;9.46;73.77;99355.95;1755966;82;21031;-36
2022/04/26 21:43:32;;;;;;;;;;;;;;;9.41;74.07;99354.88;1758593;82;20987;-38
2022/04/26 21:46:01;;;;;;;30.35;18.42;;;;;;;9.32;74.89;99354.02;1756132;82;20149;-37
2022/04/26 21:48:27;;;;;;;47.10;19.65;;;;;;;9.29;74.06;99355.00;1755331;82;20959;-36
2022/04/26 21:53:36;;;;;;;33.85;19.12;;;;;;;9.15;74.84;99351.77;1756080;82;21003;-36
2022/04/26 21:56:02;;;;;;;31.10;19.42;;;;;;;9.09;75.22;99358.59;1755982;82;21505;-36
2022/04/26 21:58:28;;;;;;;42.60;19.85;;;;;;;9.04;76.02;99355.37;1756020;82;20998;-36
2022/04/26 22:00:54;;;;;;;31.52;20.00;;;;;;;8.99;76.72;99356.88;1756008;82;20975;-36
2022/04/26 22:03:20;;;;;;;43.28;22.10;;;;;;;8.97;76.55;99351.34;1755973;82;21015;-36
2022/04/26 22:05:49;;;;;;;45.65;22.73;;;;;;;8.95;76.00;99360.59;1755971;82;21022;-36
2022/04/26 22:08:16;;;;;;;42.13;22.77;;;;;;;8.94;76.33;99360.19;1756021;82;21022;-36
2022/04/26 22:10:43;;;;;;;41.85;22.07;;;;;;;8.94;75.84;99362.80;1756112;82;20995;-36
2022/04/26 22:13:11;;;;;;;43.28;21.48;;;;;;;8.93;75.91;99363.75;1755962;82;21492;-37
2022/04/26 22:15:37;;;;;;;39.18;20.80;;;;;;;8.92;76.08;99369.90;1756090;82;20968;-37
2022/04/26 22:18:05;;;;;;;37.00;20.60;;;;;;;8.92;76.11;99371.68;1752247;82;21023;-36
2022/04/26 22:20:31;;;;;;;41.98;21.42;;;;;;;8.92;76.20;99373.00;1748103;82;21503;-36
2022/04/26 22:22:58;;;;;;;36.70;21.00;;;;;;;8.91;76.51;99373.91;1748225;82;21000;-36
2022/04/26 22:25:24;;;;;;;36.60;20.80;;;;;;;8.89;76.75;99378.38;1748009;82;21445;-35
2022/04/26 22:27:49;;;;;;;40.60;21.35;;;;;;;8.86;76.80;99379.81;1747969;82;21031;-39
2022/04/26 22:30:15;;;;;;;39.42;22.15;;;;;;;8.81;77.50;99370.41;1747945;82;21328;-36
2022/04/26 22:32:41;;;;;;;38.67;20.97;;;;;;;8.77;77.50;99373.26;1748107;82;21034;-37
2022/04/26 22:35:08;;;;;;;32.40;20.12;;;;;;;8.73;77.04;99375.17;1747953;82;20979;-41
2022/04/26 22:37:34;;;;;;;36.60;20.20;;;;;;;8.65;77.65;99378.59;1747919;82;20968;-37
2022/04/26 22:40:02;;;;;;;40.28;20.27;;;;;;;8.59;77.86;99380.20;1748036;82;21468;-37
2022/04/26 22:42:27;;;;;;;;;;;;;;;8.53;78.30;99378.70;1750591;82;20988;-41
2022/04/26 22:44:54;;;;;;;35.88;20.32;;;;;;;8.45;78.64;99376.41;1748022;82;20102;-36
2022/04/26 22:47:19;;;;;;;41.73;20.88;;;;;;;8.44;78.47;99383.90;1747948;82;20991;-36
2022/04/26 22:49:45;;;;;;;40.17;22.35;;;;;;;8.42;78.62;99383.56;1747976;82;20983;-36
2022/04/26 22:52:11;;;;;;;41.55;23.60;;;;;;;8.38;78.47;99378.88;1747919;82;20982;-36
2022/04/26 22:54:37;;;;;;;42.17;21.17;;;;;;;8.36;78.51;99383.81;1748028;82;21473;-37
2022/04/26 22:57:04;;;;;;;35.45;20.37;;;;;;;8.31;78.73;99381.85;1747979;82;21467;-36
2022/04/26 22:59:31;;;;;;;38.83;21.00;;;;;;;8.25;79.17;99390.37;1748079;82;21444;-37
2022/04/26 23:01:57;;;;;;;36.25;21.17;;;;;;;8.23;79.59;99391.37;1748335;82;21043;-37
2022/04/26 23:04:22;;;;;;;32.48;19.75;;;;;;;8.21;79.54;99395.83;1747956;82;20980;-37
2022/04/26 23:06:48;;;;;;;37.65;21.27;;;;;;;8.17;79.62;99392.95;1747898;82;20998;-37
2022/04/26 23:09:14;;;;;;;41.08;24.67;;;;;;;8.13;79.93;99395.30;1748105;82;20976;-37
2022/04/26 23:11:42;;;;;;;39.75;20.88;;;;;;;8.08;79.89;99397.66;1748009;82;21027;-36
2022/04/26 23:14:07;;;;;;;40.92;22.32;;;;;;;8.05;80.19;99402.19;1727238;82;20995;-37
2022/04/26 23:16:34;;;;;;;37.33;20.82;;;;;;;8.02;80.60;99402.31;1747920;82;21027;-36
2022/04/26 23:19:00;;;;;;;38.30;20.97;;;;;;;7.98;80.34;99398.97;1753939;82;21019;-36
2022/04/26 23:21:26;;;;;;;36.05;20.85;;;;;;;7.94;80.83;99398.72;1755956;82;20987;-36
2022/04/26 23:31:11;;;;;;;43.78;24.67;;;;;;;7.90;80.90;99403.70;1755868;82;21489;-37
2022/04/26 23:36:21;;;;;;;42.30;21.75;;;;;;;7.81;81.07;99397.55;1755961;82;20959;-36
2022/04/26 23:38:46;;;;;;;40.55;22.17;;;;;;;7.79;81.10;99402.00;1756021;82;21046;-36
2022/04/26 23:41:12;;;;;;;35.28;21.48;;;;;;;7.74;81.23;99400.03;1756064;82;20992;-36
2022/04/26 23:43:38;;;;;;;35.63;21.27;;;;;;;7.72;81.23;99404.48;1756081;82;20985;-37
2022/04/26 23:46:05;;;;;;;42.27;22.77;;;;;;;7.68;81.89;99405.91;1756075;82;21505;-36
2022/04/26 23:48:32;;;;;;;;;;;;;;;7.67;81.76;99400.27;1758708;82;20971;-36
2022/04/26 23:53:42;;;;;;;37.95;22.60;;;;;;;7.61;82.01;99400.53;1756045;82;20963;-35
2022/04/26 23:56:08;;;;;;;38.70;22.73;;;;;;;7.59;81.68;99400.21;1755996;82;21030;-36
2022/04/26 23:58:34;;;;;;;42.40;23.62;;;;;;;7.57;82.04;99397.66;1755999;82;20988;-39
